sensor_id;sensor_type;location;lat;lon;timestamp;temperature;humidity
40848;DHT22;26570;50.962;5.340;2024-01-07T00:05:57;4.40;99.90
40848;DHT22;26570;50.962;5.340;2024-01-07T00:08:52;4.30;99.90
40848;DHT22;26570;50.962;5.340;2024-01-07T00:11:44;4.10;99.90
40848;DHT22;26570;50.962;5.340;2024-01-07T00:25:39;4.20;99.90
40848;DHT22;26570;50.962;5.340;2024-01-07T00:28:34;4.00;99.90
40848;DHT22;26570;50.962;5.340;2024-01-07T01:03:27;4.10;99.90
40848;DHT22;26570;50.962;5.340;2024-01-07T02:10:53;3.70;99.90
40848;DHT22;26570;50.962;5.340;2024-01-07T02:38:20;3.50;99.90
40848;DHT22;26570;50.962;5.340;2024-01-07T03:11:16;3.50;99.90
40848;DHT22;26570;50.962;5.340;2024-01-07T03:14:06;3.60;99.90
40848;DHT22;26570;50.962;5.340;2024-01-07T03:16:55;3.50;99.90
40848;DHT22;26570;50.962;5.340;2024-01-07T03:20:02;3.60;99.90
40848;DHT22;26570;50.962;5.340;2024-01-07T03:23:15;3.70;99.90
40848;DHT22;26570;50.962;5.340;2024-01-07T03:26:34;3.40;99.90
40848;DHT22;26570;50.962;5.340;2024-01-07T03:33:05;3.50;99.90
40848;DHT22;26570;50.962;5.340;2024-01-07T03:36:34;3.50;99.90
40848;DHT22;26570;50.962;5.340;2024-01-07T04:58:09;3.60;99.90
40848;DHT22;26570;50.962;5.340;2024-01-07T06:37:03;2.70;99.90
40848;DHT22;26570;50.962;5.340;2024-01-07T06:39:57;3.00;99.90
40848;DHT22;26570;50.962;5.340;2024-01-07T06:42:55;3.00;99.90
40848;DHT22;26570;50.962;5.340;2024-01-07T06:45:45;2.80;99.90
40848;DHT22;26570;50.962;5.340;2024-01-07T06:48:33;2.70;99.90
40848;DHT22;26570;50.962;5.340;2024-01-07T06:51:18;2.80;99.90
40848;DHT22;26570;50.962;5.340;2024-01-07T06:54:07;3.00;99.90
40848;DHT22;26570;50.962;5.340;2024-01-07T06:56:58;3.10;99.90
40848;DHT22;26570;50.962;5.340;2024-01-07T07:00:08;3.20;99.90
40848;DHT22;26570;50.962;5.340;2024-01-07T07:02:54;3.20;99.90
40848;DHT22;26570;50.962;5.340;2024-01-07T07:05:40;3.20;99.90
40848;DHT22;26570;50.962;5.340;2024-01-07T07:08:28;3.10;99.90
40848;DHT22;26570;50.962;5.340;2024-01-07T07:11:57;3.00;99.90
40848;DHT22;26570;50.962;5.340;2024-01-07T07:15:14;3.10;99.90
40848;DHT22;26570;50.962;5.340;2024-01-07T07:18:10;3.00;99.90
40848;DHT22;26570;50.962;5.340;2024-01-07T07:20:56;2.90;99.90
40848;DHT22;26570;50.962;5.340;2024-01-07T07:24:03;2.90;99.90
40848;DHT22;26570;50.962;5.340;2024-01-07T07:26:52;3.00;99.90
40848;DHT22;26570;50.962;5.340;2024-01-07T07:29:38;3.10;99.90
40848;DHT22;26570;50.962;5.340;2024-01-07T07:32:23;2.90;99.90
40848;DHT22;26570;50.962;5.340;2024-01-07T07:35:46;2.90;99.90
40848;DHT22;26570;50.962;5.340;2024-01-07T07:38:34;2.80;99.90
40848;DHT22;26570;50.962;5.340;2024-01-07T07:41:19;2.80;99.90
40848;DHT22;26570;50.962;5.340;2024-01-07T07:44:05;2.80;99.90
40848;DHT22;26570;50.962;5.340;2024-01-07T07:46:50;2.90;99.90
40848;DHT22;26570;50.962;5.340;2024-01-07T07:49:35;2.90;99.90
40848;DHT22;26570;50.962;5.340;2024-01-07T07:52:44;3.00;99.90
40848;DHT22;26570;50.962;5.340;2024-01-07T07:55:29;2.90;99.90
40848;DHT22;26570;50.962;5.340;2024-01-07T07:58:14;2.90;99.90
40848;DHT22;26570;50.962;5.340;2024-01-07T08:01:01;2.90;99.90
40848;DHT22;26570;50.962;5.340;2024-01-07T08:03:46;2.80;99.90
40848;DHT22;26570;50.962;5.340;2024-01-07T08:06:34;2.90;99.90
40848;DHT22;26570;50.962;5.340;2024-01-07T08:09:42;3.00;99.90
40848;DHT22;26570;50.962;5.340;2024-01-07T08:12:30;3.00;99.90
40848;DHT22;26570;50.962;5.340;2024-01-07T08:15:38;3.20;99.90
40848;DHT22;26570;50.962;5.340;2024-01-07T08:18:23;3.10;99.90
40848;DHT22;26570;50.962;5.340;2024-01-07T08:21:30;3.20;99.90
40848;DHT22;26570;50.962;5.340;2024-01-07T08:24:18;3.10;99.90
40848;DHT22;26570;50.962;5.340;2024-01-07T08:27:08;3.00;99.90
40848;DHT22;26570;50.962;5.340;2024-01-07T08:29:53;2.90;99.90
40848;DHT22;26570;50.962;5.340;2024-01-07T08:32:39;2.60;99.90
40848;DHT22;26570;50.962;5.340;2024-01-07T08:35:23;2.70;99.90
40848;DHT22;26570;50.962;5.340;2024-01-07T08:38:11;2.70;99.90
40848;DHT22;26570;50.962;5.340;2024-01-07T08:41:19;2.60;99.90
40848;DHT22;26570;50.962;5.340;2024-01-07T08:44:26;2.80;99.90
40848;DHT22;26570;50.962;5.340;2024-01-07T08:47:33;2.80;99.90
40848;DHT22;26570;50.962;5.340;2024-01-07T08:50:46;2.50;99.90
40848;DHT22;26570;50.962;5.340;2024-01-07T08:53:36;2.50;99.90
40848;DHT22;26570;50.962;5.340;2024-01-07T08:56:22;2.50;99.90
40848;DHT22;26570;50.962;5.340;2024-01-07T08:59:16;2.50;99.90
40848;DHT22;26570;50.962;5.340;2024-01-07T09:02:24;2.50;99.90
40848;DHT22;26570;50.962;5.340;2024-01-07T09:05:10;2.40;99.90
40848;DHT22;26570;50.962;5.340;2024-01-07T09:07:56;2.40;99.90
40848;DHT22;26570;50.962;5.340;2024-01-07T09:10:44;2.70;99.90
40848;DHT22;26570;50.962;5.340;2024-01-07T09:13:32;2.80;99.90
40848;DHT22;26570;50.962;5.340;2024-01-07T09:16:42;2.90;99.90
40848;DHT22;26570;50.962;5.340;2024-01-07T09:19:53;2.90;99.90
40848;DHT22;26570;50.962;5.340;2024-01-07T09:22:43;2.70;99.90
40848;DHT22;26570;50.962;5.340;2024-01-07T09:25:32;2.50;99.90
40848;DHT22;26570;50.962;5.340;2024-01-07T09:28:39;2.70;99.90
40848;DHT22;26570;50.962;5.340;2024-01-07T09:31:27;2.80;99.90
40848;DHT22;26570;50.962;5.340;2024-01-07T09:34:12;2.50;99.90
40848;DHT22;26570;50.962;5.340;2024-01-07T09:36:57;2.70;99.90
40848;DHT22;26570;50.962;5.340;2024-01-07T09:40:05;2.50;99.90
40848;DHT22;26570;50.962;5.340;2024-01-07T09:42:51;2.50;99.90
40848;DHT22;26570;50.962;5.340;2024-01-07T09:45:42;2.50;99.90
40848;DHT22;26570;50.962;5.340;2024-01-07T09:48:33;2.50;99.90
40848;DHT22;26570;50.962;5.340;2024-01-07T09:51:22;2.60;99.90
40848;DHT22;26570;50.962;5.340;2024-01-07T09:54:11;2.70;99.90
40848;DHT22;26570;50.962;5.340;2024-01-07T09:57:03;2.70;99.90
40848;DHT22;26570;50.962;5.340;2024-01-07T10:00:13;2.60;99.90
40848;DHT22;26570;50.962;5.340;2024-01-07T10:02:59;2.50;99.90
40848;DHT22;26570;50.962;5.340;2024-01-07T10:06:12;2.70;99.90
40848;DHT22;26570;50.962;5.340;2024-01-07T10:08:58;2.80;99.90
40848;DHT22;26570;50.962;5.340;2024-01-07T10:12:27;2.80;99.90
40848;DHT22;26570;50.962;5.340;2024-01-07T10:15:13;2.40;99.90
40848;DHT22;26570;50.962;5.340;2024-01-07T10:18:04;2.40;99.90
40848;DHT22;26570;50.962;5.340;2024-01-07T10:20:53;2.40;99.90
40848;DHT22;26570;50.962;5.340;2024-01-07T10:23:42;2.60;99.90
40848;DHT22;26570;50.962;5.340;2024-01-07T10:26:27;2.70;99.90
40848;DHT22;26570;50.962;5.340;2024-01-07T10:29:12;2.70;99.90
40848;DHT22;26570;50.962;5.340;2024-01-07T10:32:26;2.70;99.90
40848;DHT22;26570;50.962;5.340;2024-01-07T10:35:19;2.50;99.90
40848;DHT22;26570;50.962;5.340;2024-01-07T10:38:06;2.50;99.90
40848;DHT22;26570;50.962;5.340;2024-01-07T10:40:52;2.50;99.90
40848;DHT22;26570;50.962;5.340;2024-01-07T10:43:49;2.50;99.90
40848;DHT22;26570;50.962;5.340;2024-01-07T10:46:40;2.60;99.90
40848;DHT22;26570;50.962;5.340;2024-01-07T10:49:50;2.50;99.90
40848;DHT22;26570;50.962;5.340;2024-01-07T10:53:03;2.50;99.90
40848;DHT22;26570;50.962;5.340;2024-01-07T10:56:25;2.60;99.90
40848;DHT22;26570;50.962;5.340;2024-01-07T10:59:13;2.60;99.90
40848;DHT22;26570;50.962;5.340;2024-01-07T11:01:58;2.60;99.90
40848;DHT22;26570;50.962;5.340;2024-01-07T11:04:54;2.50;99.90
40848;DHT22;26570;50.962;5.340;2024-01-07T11:07:44;2.60;99.90
40848;DHT22;26570;50.962;5.340;2024-01-07T11:10:37;2.70;99.90
40848;DHT22;26570;50.962;5.340;2024-01-07T11:13:47;2.70;99.90
40848;DHT22;26570;50.962;5.340;2024-01-07T11:16:43;2.60;99.90
40848;DHT22;26570;50.962;5.340;2024-01-07T11:19:29;2.60;99.90
40848;DHT22;26570;50.962;5.340;2024-01-07T11:22:24;2.50;99.90
40848;DHT22;26570;50.962;5.340;2024-01-07T11:25:32;2.30;99.90
40848;DHT22;26570;50.962;5.340;2024-01-07T11:28:51;2.20;99.90
40848;DHT22;26570;50.962;5.340;2024-01-07T11:34:47;2.40;99.90
40848;DHT22;26570;50.962;5.340;2024-01-07T11:38:05;2.60;99.90
40848;DHT22;26570;50.962;5.340;2024-01-07T11:41:14;2.70;99.90
40848;DHT22;26570;50.962;5.340;2024-01-07T11:44:00;2.50;99.90
40848;DHT22;26570;50.962;5.340;2024-01-07T11:46:47;2.50;99.90
40848;DHT22;26570;50.962;5.340;2024-01-07T11:49:32;2.40;99.90
40848;DHT22;26570;50.962;5.340;2024-01-07T11:52:42;2.50;99.90
40848;DHT22;26570;50.962;5.340;2024-01-07T11:55:27;2.20;99.90
40848;DHT22;26570;50.962;5.340;2024-01-07T11:58:13;2.50;99.90
40848;DHT22;26570;50.962;5.340;2024-01-07T12:00:58;2.60;99.90
40848;DHT22;26570;50.962;5.340;2024-01-07T12:03:47;2.70;99.90
40848;DHT22;26570;50.962;5.340;2024-01-07T12:06:35;2.70;99.90
40848;DHT22;26570;50.962;5.340;2024-01-07T12:09:21;2.60;99.90
40848;DHT22;26570;50.962;5.340;2024-01-07T12:12:30;2.70;99.90
40848;DHT22;26570;50.962;5.340;2024-01-07T12:15:18;2.70;99.90
40848;DHT22;26570;50.962;5.340;2024-01-07T12:18:04;2.70;99.90
40848;DHT22;26570;50.962;5.340;2024-01-07T12:21:19;2.70;99.90
40848;DHT22;26570;50.962;5.340;2024-01-07T12:24:09;2.60;99.90
40848;DHT22;26570;50.962;5.340;2024-01-07T12:26:54;2.50;99.90
40848;DHT22;26570;50.962;5.340;2024-01-07T12:30:02;2.50;99.90
40848;DHT22;26570;50.962;5.340;2024-01-07T12:32:47;2.40;99.90
40848;DHT22;26570;50.962;5.340;2024-01-07T12:35:55;2.40;99.90
40848;DHT22;26570;50.962;5.340;2024-01-07T12:38:42;2.60;99.90
40848;DHT22;26570;50.962;5.340;2024-01-07T12:41:27;2.90;99.90
40848;DHT22;26570;50.962;5.340;2024-01-07T12:44:13;2.80;99.90
40848;DHT22;26570;50.962;5.340;2024-01-07T12:46:58;2.90;99.90
40848;DHT22;26570;50.962;5.340;2024-01-07T12:49:43;2.70;99.90
40848;DHT22;26570;50.962;5.340;2024-01-07T12:52:28;2.60;99.90
40848;DHT22;26570;50.962;5.340;2024-01-07T12:55:13;2.70;99.90
40848;DHT22;26570;50.962;5.340;2024-01-07T12:58:21;2.80;99.90
40848;DHT22;26570;50.962;5.340;2024-01-07T13:01:06;2.80;99.90
40848;DHT22;26570;50.962;5.340;2024-01-07T13:03:50;2.80;99.90
40848;DHT22;26570;50.962;5.340;2024-01-07T13:06:35;2.80;99.90
40848;DHT22;26570;50.962;5.340;2024-01-07T13:09:43;2.70;99.90
40848;DHT22;26570;50.962;5.340;2024-01-07T13:12:31;3.00;99.90
40848;DHT22;26570;50.962;5.340;2024-01-07T13:15:16;3.10;99.90
40848;DHT22;26570;50.962;5.340;2024-01-07T13:18:23;3.10;99.90
40848;DHT22;26570;50.962;5.340;2024-01-07T13:21:38;3.20;99.90
40848;DHT22;26570;50.962;5.340;2024-01-07T13:24:24;2.60;99.90
40848;DHT22;26570;50.962;5.340;2024-01-07T13:27:09;2.70;99.90
40848;DHT22;26570;50.962;5.340;2024-01-07T13:29:54;3.00;99.90
40848;DHT22;26570;50.962;5.340;2024-01-07T13:33:01;2.50;99.90
40848;DHT22;26570;50.962;5.340;2024-01-07T13:35:47;2.30;99.90
40848;DHT22;26570;50.962;5.340;2024-01-07T13:38:36;2.40;99.90
40848;DHT22;26570;50.962;5.340;2024-01-07T13:41:23;2.50;99.90
40848;DHT22;26570;50.962;5.340;2024-01-07T13:44:09;2.40;99.90
40848;DHT22;26570;50.962;5.340;2024-01-07T13:47:01;2.50;99.90
40848;DHT22;26570;50.962;5.340;2024-01-07T13:50:10;2.60;99.90
40848;DHT22;26570;50.962;5.340;2024-01-07T13:52:59;2.70;99.90
40848;DHT22;26570;50.962;5.340;2024-01-07T13:55:43;2.70;99.90
40848;DHT22;26570;50.962;5.340;2024-01-07T13:58:31;2.60;99.90
40848;DHT22;26570;50.962;5.340;2024-01-07T14:01:38;2.40;99.90
40848;DHT22;26570;50.962;5.340;2024-01-07T14:04:27;2.60;99.90
40848;DHT22;26570;50.962;5.340;2024-01-07T14:07:15;2.00;99.90
40848;DHT22;26570;50.962;5.340;2024-01-07T14:10:22;2.30;99.90
40848;DHT22;26570;50.962;5.340;2024-01-07T14:13:07;2.40;99.90
40848;DHT22;26570;50.962;5.340;2024-01-07T14:15:52;2.50;99.90
40848;DHT22;26570;50.962;5.340;2024-01-07T14:19:00;2.50;99.90
40848;DHT22;26570;50.962;5.340;2024-01-07T14:21:45;2.30;99.90
40848;DHT22;26570;50.962;5.340;2024-01-07T14:24:33;2.30;99.90
40848;DHT22;26570;50.962;5.340;2024-01-07T14:27:40;2.30;99.90
40848;DHT22;26570;50.962;5.340;2024-01-07T14:30:26;2.30;99.90
40848;DHT22;26570;50.962;5.340;2024-01-07T14:33:11;2.50;99.90
40848;DHT22;26570;50.962;5.340;2024-01-07T14:35:59;2.40;99.90
40848;DHT22;26570;50.962;5.340;2024-01-07T14:39:09;2.20;99.90
40848;DHT22;26570;50.962;5.340;2024-01-07T14:41:55;2.20;99.90
40848;DHT22;26570;50.962;5.340;2024-01-07T14:44:41;2.10;99.90
40848;DHT22;26570;50.962;5.340;2024-01-07T14:47:28;2.10;99.90
40848;DHT22;26570;50.962;5.340;2024-01-07T14:50:13;2.30;99.90
40848;DHT22;26570;50.962;5.340;2024-01-07T14:52:58;2.10;99.90
40848;DHT22;26570;50.962;5.340;2024-01-07T14:55:43;1.90;99.90
40848;DHT22;26570;50.962;5.340;2024-01-07T14:58:28;1.90;99.90
40848;DHT22;26570;50.962;5.340;2024-01-07T15:01:19;2.00;99.90
40848;DHT22;26570;50.962;5.340;2024-01-07T15:04:05;1.90;99.90
40848;DHT22;26570;50.962;5.340;2024-01-07T15:06:49;1.80;99.90
40848;DHT22;26570;50.962;5.340;2024-01-07T15:10:00;1.80;99.90
40848;DHT22;26570;50.962;5.340;2024-01-07T15:13:07;1.90;99.90
40848;DHT22;26570;50.962;5.340;2024-01-07T15:15:52;1.90;99.90
40848;DHT22;26570;50.962;5.340;2024-01-07T15:18:37;1.80;99.90
40848;DHT22;26570;50.962;5.340;2024-01-07T15:21:23;1.70;99.90
40848;DHT22;26570;50.962;5.340;2024-01-07T15:24:36;1.60;99.90
40848;DHT22;26570;50.962;5.340;2024-01-07T15:27:21;1.40;99.90
40848;DHT22;26570;50.962;5.340;2024-01-07T15:30:07;1.40;99.90
40848;DHT22;26570;50.962;5.340;2024-01-07T15:33:31;1.50;99.90
40848;DHT22;26570;50.962;5.340;2024-01-07T15:36:16;1.40;99.90
40848;DHT22;26570;50.962;5.340;2024-01-07T15:39:02;1.50;99.90
40848;DHT22;26570;50.962;5.340;2024-01-07T15:42:13;1.40;99.90
40848;DHT22;26570;50.962;5.340;2024-01-07T15:45:26;1.40;99.90
40848;DHT22;26570;50.962;5.340;2024-01-07T15:48:11;1.30;99.90
40848;DHT22;26570;50.962;5.340;2024-01-07T15:51:24;1.40;99.90
40848;DHT22;26570;50.962;5.340;2024-01-07T15:54:09;1.30;99.90
40848;DHT22;26570;50.962;5.340;2024-01-07T15:56:54;1.50;99.90
40848;DHT22;26570;50.962;5.340;2024-01-07T16:00:17;1.30;99.90
40848;DHT22;26570;50.962;5.340;2024-01-07T16:03:03;1.40;99.90
40848;DHT22;26570;50.962;5.340;2024-01-07T16:05:48;1.40;99.90
40848;DHT22;26570;50.962;5.340;2024-01-07T16:08:33;1.60;99.90
40848;DHT22;26570;50.962;5.340;2024-01-07T16:11:18;1.40;99.90
40848;DHT22;26570;50.962;5.340;2024-01-07T16:14:26;1.40;99.90
40848;DHT22;26570;50.962;5.340;2024-01-07T16:17:12;1.40;99.90
40848;DHT22;26570;50.962;5.340;2024-01-07T16:20:23;1.40;99.90
40848;DHT22;26570;50.962;5.340;2024-01-07T16:23:08;1.40;99.90
40848;DHT22;26570;50.962;5.340;2024-01-07T16:25:53;1.50;99.90
40848;DHT22;26570;50.962;5.340;2024-01-07T16:28:38;1.70;99.90
40848;DHT22;26570;50.962;5.340;2024-01-07T16:31:52;1.60;99.90
40848;DHT22;26570;50.962;5.340;2024-01-07T16:34:37;1.50;99.90
40848;DHT22;26570;50.962;5.340;2024-01-07T16:37:25;1.40;99.90
40848;DHT22;26570;50.962;5.340;2024-01-07T16:40:32;1.30;99.90
40848;DHT22;26570;50.962;5.340;2024-01-07T16:43:21;1.40;99.90
40848;DHT22;26570;50.962;5.340;2024-01-07T16:46:28;1.30;99.90
40848;DHT22;26570;50.962;5.340;2024-01-07T16:49:14;1.40;99.90
40848;DHT22;26570;50.962;5.340;2024-01-07T16:51:58;1.30;99.90
40848;DHT22;26570;50.962;5.340;2024-01-07T16:55:06;1.10;99.90
40848;DHT22;26570;50.962;5.340;2024-01-07T16:57:52;1.10;99.90
40848;DHT22;26570;50.962;5.340;2024-01-07T17:00:37;1.10;99.90
40848;DHT22;26570;50.962;5.340;2024-01-07T17:03:23;1.10;99.90
40848;DHT22;26570;50.962;5.340;2024-01-07T17:06:30;1.00;99.90
40848;DHT22;26570;50.962;5.340;2024-01-07T17:09:20;0.90;99.90
40848;DHT22;26570;50.962;5.340;2024-01-07T17:12:36;1.10;99.90
40848;DHT22;26570;50.962;5.340;2024-01-07T17:15:43;1.10;99.90
40848;DHT22;26570;50.962;5.340;2024-01-07T17:18:50;1.20;99.90
40848;DHT22;26570;50.962;5.340;2024-01-07T17:21:36;1.20;99.90
40848;DHT22;26570;50.962;5.340;2024-01-07T17:24:21;1.30;99.90
40848;DHT22;26570;50.962;5.340;2024-01-07T17:27:06;1.20;99.90
40848;DHT22;26570;50.962;5.340;2024-01-07T17:30:13;1.20;99.90
40848;DHT22;26570;50.962;5.340;2024-01-07T17:33:01;1.20;99.90
40848;DHT22;26570;50.962;5.340;2024-01-07T17:36:14;1.50;99.90
40848;DHT22;26570;50.962;5.340;2024-01-07T17:39:00;1.50;99.90
40848;DHT22;26570;50.962;5.340;2024-01-07T17:41:45;1.30;99.90
40848;DHT22;26570;50.962;5.340;2024-01-07T17:44:30;1.20;99.90
40848;DHT22;26570;50.962;5.340;2024-01-07T17:47:16;1.30;99.90
40848;DHT22;26570;50.962;5.340;2024-01-07T17:50:05;1.20;99.90
40848;DHT22;26570;50.962;5.340;2024-01-07T17:52:50;1.20;99.90
40848;DHT22;26570;50.962;5.340;2024-01-07T17:55:38;1.30;99.90
40848;DHT22;26570;50.962;5.340;2024-01-07T17:58:24;1.40;99.90
40848;DHT22;26570;50.962;5.340;2024-01-07T18:01:12;1.40;99.90
40848;DHT22;26570;50.962;5.340;2024-01-07T18:03:57;1.50;99.90
40848;DHT22;26570;50.962;5.340;2024-01-07T18:06:44;1.50;99.90
40848;DHT22;26570;50.962;5.340;2024-01-07T18:09:28;1.30;99.90
40848;DHT22;26570;50.962;5.340;2024-01-07T18:12:17;1.30;99.90
40848;DHT22;26570;50.962;5.340;2024-01-07T18:15:29;1.30;99.90
40848;DHT22;26570;50.962;5.340;2024-01-07T18:18:20;1.50;99.90
40848;DHT22;26570;50.962;5.340;2024-01-07T18:21:28;1.40;99.90
40848;DHT22;26570;50.962;5.340;2024-01-07T18:24:15;1.30;99.90
40848;DHT22;26570;50.962;5.340;2024-01-07T18:27:00;1.40;99.90
40848;DHT22;26570;50.962;5.340;2024-01-07T18:29:49;1.50;99.90
40848;DHT22;26570;50.962;5.340;2024-01-07T18:32:34;1.70;99.90
40848;DHT22;26570;50.962;5.340;2024-01-07T18:35:43;1.60;99.90
40848;DHT22;26570;50.962;5.340;2024-01-07T18:38:28;1.40;99.90
40848;DHT22;26570;50.962;5.340;2024-01-07T18:41:38;1.50;99.90
40848;DHT22;26570;50.962;5.340;2024-01-07T18:44:23;1.40;99.90
40848;DHT22;26570;50.962;5.340;2024-01-07T18:47:33;1.50;99.90
40848;DHT22;26570;50.962;5.340;2024-01-07T18:50:18;1.50;99.90
40848;DHT22;26570;50.962;5.340;2024-01-07T18:53:03;1.30;99.90
40848;DHT22;26570;50.962;5.340;2024-01-07T18:55:48;1.30;99.90
40848;DHT22;26570;50.962;5.340;2024-01-07T18:59:01;1.80;99.90
40848;DHT22;26570;50.962;5.340;2024-01-07T19:01:46;1.30;99.90
40848;DHT22;26570;50.962;5.340;2024-01-07T19:04:31;1.40;99.90
40848;DHT22;26570;50.962;5.340;2024-01-07T19:07:42;1.40;99.90
40848;DHT22;26570;50.962;5.340;2024-01-07T19:10:31;1.40;99.90
40848;DHT22;26570;50.962;5.340;2024-01-07T19:13:38;1.30;99.90
40848;DHT22;26570;50.962;5.340;2024-01-07T19:16:26;1.40;99.90
40848;DHT22;26570;50.962;5.340;2024-01-07T19:19:42;1.40;99.90
40848;DHT22;26570;50.962;5.340;2024-01-07T19:22:27;1.30;99.90
40848;DHT22;26570;50.962;5.340;2024-01-07T19:25:12;1.20;99.90
40848;DHT22;26570;50.962;5.340;2024-01-07T19:28:00;1.80;99.90
40848;DHT22;26570;50.962;5.340;2024-01-07T19:30:45;0.90;99.90
40848;DHT22;26570;50.962;5.340;2024-01-07T19:33:32;0.80;99.90
40848;DHT22;26570;50.962;5.340;2024-01-07T19:36:19;0.80;99.90
40848;DHT22;26570;50.962;5.340;2024-01-07T19:39:27;0.90;99.90
40848;DHT22;26570;50.962;5.340;2024-01-07T19:42:15;1.20;99.90
40848;DHT22;26570;50.962;5.340;2024-01-07T19:45:00;0.70;99.90
40848;DHT22;26570;50.962;5.340;2024-01-07T19:47:46;0.80;99.90
40848;DHT22;26570;50.962;5.340;2024-01-07T19:50:54;0.60;99.90
40848;DHT22;26570;50.962;5.340;2024-01-07T19:54:01;0.40;99.90
40848;DHT22;26570;50.962;5.340;2024-01-07T19:56:46;0.60;99.90
40848;DHT22;26570;50.962;5.340;2024-01-07T19:59:31;0.60;99.90
40848;DHT22;26570;50.962;5.340;2024-01-07T20:02:39;0.40;99.90
40848;DHT22;26570;50.962;5.340;2024-01-07T20:13:43;0.30;99.90
40848;DHT22;26570;50.962;5.340;2024-01-07T20:22:02;0.10;99.90
40848;DHT22;26570;50.962;5.340;2024-01-07T20:33:10;0.40;99.90
40848;DHT22;26570;50.962;5.340;2024-01-07T20:35:59;0.30;99.90
40848;DHT22;26570;50.962;5.340;2024-01-07T20:47:02;0.10;99.90
40848;DHT22;26570;50.962;5.340;2024-01-07T20:59:14;-0.30;99.90
40848;DHT22;26570;50.962;5.340;2024-01-07T21:02:18;-0.10;99.90
40848;DHT22;26570;50.962;5.340;2024-01-07T21:10:08;0.10;99.90
40848;DHT22;26570;50.962;5.340;2024-01-07T21:17:16;0.00;99.90
40848;DHT22;26570;50.962;5.340;2024-01-07T21:20:31;0.00;99.90
40848;DHT22;26570;50.962;5.340;2024-01-07T21:23:54;-0.10;99.90
40848;DHT22;26570;50.962;5.340;2024-01-07T21:34:11;-0.20;99.90
40848;DHT22;26570;50.962;5.340;2024-01-07T21:37:02;-0.20;99.90
40848;DHT22;26570;50.962;5.340;2024-01-07T21:40:35;-0.30;99.90
40848;DHT22;26570;50.962;5.340;2024-01-07T21:43:28;-0.20;99.90
40848;DHT22;26570;50.962;5.340;2024-01-07T21:46:34;-0.10;99.90
40848;DHT22;26570;50.962;5.340;2024-01-07T21:49:22;-0.10;99.90
40848;DHT22;26570;50.962;5.340;2024-01-07T21:52:09;-0.10;99.90
40848;DHT22;26570;50.962;5.340;2024-01-07T21:55:23;-0.10;99.90
40848;DHT22;26570;50.962;5.340;2024-01-07T21:59:19;-0.30;99.90
40848;DHT22;26570;50.962;5.340;2024-01-07T22:02:25;-0.30;99.90
40848;DHT22;26570;50.962;5.340;2024-01-07T22:05:25;-0.40;99.90
40848;DHT22;26570;50.962;5.340;2024-01-07T22:08:45;-0.50;99.90
40848;DHT22;26570;50.962;5.340;2024-01-07T22:15:32;-0.40;99.90
40848;DHT22;26570;50.962;5.340;2024-01-07T22:18:41;-0.30;99.90
40848;DHT22;26570;50.962;5.340;2024-01-07T22:21:28;-0.50;99.90
40848;DHT22;26570;50.962;5.340;2024-01-07T22:28:18;-0.50;99.90
40848;DHT22;26570;50.962;5.340;2024-01-07T22:35:18;-0.50;99.90
40848;DHT22;26570;50.962;5.340;2024-01-07T22:38:17;-0.20;99.90
40848;DHT22;26570;50.962;5.340;2024-01-07T22:41:37;-0.50;99.90
40848;DHT22;26570;50.962;5.340;2024-01-07T22:45:11;-0.40;99.90
40848;DHT22;26570;50.962;5.340;2024-01-07T22:48:02;-0.70;99.90
40848;DHT22;26570;50.962;5.340;2024-01-07T22:51:19;-0.70;99.90
40848;DHT22;26570;50.962;5.340;2024-01-07T22:54:06;-0.80;99.90
40848;DHT22;26570;50.962;5.340;2024-01-07T22:56:54;-0.90;99.90
40848;DHT22;26570;50.962;5.340;2024-01-07T22:59:56;-0.80;99.90
40848;DHT22;26570;50.962;5.340;2024-01-07T23:02:45;-0.60;99.90
40848;DHT22;26570;50.962;5.340;2024-01-07T23:05:59;-0.80;99.90
40848;DHT22;26570;50.962;5.340;2024-01-07T23:08:44;-0.80;99.90
40848;DHT22;26570;50.962;5.340;2024-01-07T23:11:32;-0.80;99.90
40848;DHT22;26570;50.962;5.340;2024-01-07T23:14:56;-0.80;99.90
40848;DHT22;26570;50.962;5.340;2024-01-07T23:18:18;-0.90;99.90
40848;DHT22;26570;50.962;5.340;2024-01-07T23:21:13;-0.80;99.90
40848;DHT22;26570;50.962;5.340;2024-01-07T23:24:23;-0.60;99.90
40848;DHT22;26570;50.962;5.340;2024-01-07T23:27:39;-0.70;99.90
40848;DHT22;26570;50.962;5.340;2024-01-07T23:30:32;-0.50;99.90
40848;DHT22;26570;50.962;5.340;2024-01-07T23:33:40;-0.60;99.90
40848;DHT22;26570;50.962;5.340;2024-01-07T23:36:56;-0.50;99.90
40848;DHT22;26570;50.962;5.340;2024-01-07T23:39:50;-0.60;99.90
40848;DHT22;26570;50.962;5.340;2024-01-07T23:43:03;-0.90;99.90
40848;DHT22;26570;50.962;5.340;2024-01-07T23:46:06;-0.90;99.90
40848;DHT22;26570;50.962;5.340;2024-01-07T23:49:22;-0.90;99.90
40848;DHT22;26570;50.962;5.340;2024-01-07T23:52:15;-1.00;99.90
40848;DHT22;26570;50.962;5.340;2024-01-07T23:55:43;-0.90;99.90
40848;DHT22;26570;50.962;5.340;2024-01-07T23:59:16;-0.90;99.90
